Time;durP1;ratioP1;P1;durP2;ratioP2;P2;SDS_P1;SDS_P2;PMS_P1;PMS_P2;Temp;Humidity;BMP_temperature;BMP_pressure;BME280_temperature;BME280_humidity;BME280_pressure;Samples;Min_cycle;Max_cycle;Signal;HPM_P1;HPM_P2
2022/04/04 00:00:36;;;;;;;8.95;8.60;;;2.50;99.90;;;;;;4162839;28;20080;-85
2022/04/04 00:02:38;;;;;;;8.27;7.97;;;2.50;99.90;;;;;;4166450;28;20084;-84
2022/04/04 00:04:42;;;;;;;6.90;6.70;;;2.60;99.90;;;;;;4176912;28;20052;-85
2022/04/04 00:06:44;;;;;;;8.02;7.82;;;2.60;99.90;;;;;;4177970;28;20048;-85
2022/04/04 00:08:46;;;;;;;7.38;7.00;;;2.60;99.90;;;;;;4176127;28;20551;-85
2022/04/04 00:10:49;;;;;;;7.85;7.63;;;2.70;99.90;;;;;;4177873;28;20451;-86
2022/04/04 00:12:50;;;;;;;7.53;7.22;;;2.70;99.90;;;;;;4177573;28;20048;-84
2022/04/04 00:14:55;;;;;;;14.02;12.95;;;2.70;99.90;;;;;;4176657;28;20041;-85
2022/04/04 00:17:00;;;;;;;12.48;11.77;;;2.70;99.90;;;;;;4145038;28;20089;-85
2022/04/04 00:19:02;;;;;;;13.15;12.15;;;2.60;99.90;;;;;;4171288;28;20572;-84
2022/04/04 00:21:04;;;;;;;12.65;11.95;;;2.60;99.90;;;;;;4177795;28;20049;-85
2022/04/04 00:23:13;;;;;;;11.05;10.18;;;2.60;99.90;;;;;;4159681;28;20099;-85
2022/04/04 00:25:16;;;;;;;10.85;10.25;;;2.60;99.90;;;;;;4175581;28;20077;-85
2022/04/04 00:27:18;;;;;;;9.30;8.90;;;2.50;99.90;;;;;;4176776;28;20041;-85
2022/04/04 00:29:20;;;;;;;8.73;8.43;;;2.60;99.90;;;;;;4171794;28;20929;-85
2022/04/04 00:31:23;;;;;;;8.52;8.32;;;2.60;99.90;;;;;;4147450;28;20044;-84
2022/04/04 00:33:26;;;;;;;8.45;8.15;;;2.60;99.90;;;;;;4159585;28;20444;-86
2022/04/04 00:35:28;;;;;;;7.18;6.75;;;2.60;99.90;;;;;;4188971;28;20032;-85
2022/04/04 00:37:34;;;;;;;9.27;8.98;;;2.60;99.90;;;;;;4182605;28;20040;-85
2022/04/04 00:39:37;;;;;;;8.20;7.85;;;2.50;99.90;;;;;;4193701;28;20048;-85
2022/04/04 00:41:46;;;;;;;8.73;8.35;;;2.50;99.90;;;;;;4184725;28;20091;-85
2022/04/04 00:43:57;;;;;;;9.20;8.82;;;2.50;99.90;;;;;;4184511;28;20052;-85
2022/04/04 00:46:00;;;;;;;9.95;9.32;;;2.40;99.90;;;;;;4183534;28;20059;-85
2022/04/04 00:48:03;;;;;;;8.23;7.65;;;2.40;99.90;;;;;;4176128;28;20103;-85
2022/04/04 00:50:06;;;;;;;8.20;7.75;;;2.20;99.90;;;;;;4189162;28;20151;-85
2022/04/04 00:52:08;;;;;;;8.77;8.48;;;2.20;99.90;;;;;;4176019;28;20111;-84
2022/04/04 00:54:13;;;;;;;9.02;8.73;;;2.10;99.90;;;;;;4174983;28;20052;-85
2022/04/04 00:56:16;;;;;;;8.05;7.82;;;2.10;99.90;;;;;;4176773;28;20099;-85
2022/04/04 00:58:19;;;;;;;10.32;9.60;;;2.20;99.90;;;;;;4176118;28;20105;-85
2022/04/04 01:00:21;;;;;;;10.88;10.18;;;2.20;99.90;;;;;;4160251;28;20041;-82
2022/04/04 01:02:25;;;;;;;10.57;9.85;;;2.10;99.90;;;;;;4161650;28;20046;-82
2022/04/04 01:04:27;;;;;;;9.98;9.20;;;2.00;99.90;;;;;;4157043;28;20476;-82
2022/04/04 01:06:29;;;;;;;9.00;8.73;;;2.00;99.90;;;;;;4181665;28;20086;-82
2022/04/04 01:08:31;;;;;;;9.45;9.13;;;1.90;99.90;;;;;;4188380;28;20473;-82
2022/04/04 01:10:33;;;;;;;7.82;7.57;;;1.90;99.90;;;;;;4169982;28;20095;-81
2022/04/04 01:12:36;;;;;;;7.88;7.78;;;2.00;99.90;;;;;;4158368;28;20099;-82
2022/04/04 01:14:48;;;;;;;9.18;8.77;;;2.00;99.90;;;;;;4191381;28;20083;-82
2022/04/04 01:16:50;;;;;;;10.07;9.70;;;2.00;99.90;;;;;;4176185;28;20057;-82
2022/04/04 01:18:53;;;;;;;8.68;8.38;;;1.90;99.90;;;;;;4162050;28;20072;-82
2022/04/04 01:20:57;;;;;;;7.57;7.10;;;1.90;99.90;;;;;;4171448;28;20052;-82
2022/04/04 01:23:00;;;;;;;8.73;8.52;;;1.90;99.90;;;;;;4162430;28;20579;-82
2022/04/04 01:25:05;;;;;;;;;;;1.80;99.90;;;;;;4192296;28;20074;-82
2022/04/04 01:27:08;;;;;;;8.15;8.00;;;1.90;99.90;;;;;;4192114;28;19972;-82
2022/04/04 01:29:10;;;;;;;8.55;8.25;;;1.90;99.90;;;;;;4192913;28;20087;-81
2022/04/04 01:31:12;;;;;;;8.85;8.48;;;1.90;99.90;;;;;;4193443;28;20086;-82
2022/04/04 01:33:15;;;;;;;8.40;8.10;;;1.90;99.90;;;;;;4191457;28;20659;-81
2022/04/04 01:35:20;;;;;;;9.82;9.52;;;2.00;99.90;;;;;;4168273;28;20037;-82
2022/04/04 01:37:22;;;;;;;8.65;8.25;;;1.90;99.90;;;;;;4161647;28;20469;-81
2022/04/04 01:39:24;;;;;;;8.27;8.00;;;1.90;99.90;;;;;;4176084;28;20115;-83
2022/04/04 01:41:27;;;;;;;10.13;9.40;;;1.90;99.90;;;;;;4170496;28;20037;-82
2022/04/04 01:43:30;;;;;;;10.15;9.75;;;1.90;99.90;;;;;;4192846;28;20048;-81
2022/04/04 01:47:54;;;;;;;9.98;9.55;;;1.80;99.90;;;;;;4180881;28;20443;-82
2022/04/04 01:49:56;;;;;;;10.35;9.82;;;1.80;99.90;;;;;;4172270;28;20071;-81
2022/04/04 01:51:59;;;;;;;9.13;8.77;;;1.70;99.90;;;;;;4187259;28;20045;-81
2022/04/04 01:54:02;;;;;;;10.40;9.88;;;1.70;99.90;;;;;;4175507;28;20528;-82
2022/04/04 01:56:04;;;;;;;11.48;10.68;;;1.60;99.90;;;;;;4177119;28;20044;-82
2022/04/04 01:58:06;;;;;;;12.18;11.02;;;1.50;99.90;;;;;;4176120;28;20091;-81
2022/04/04 02:00:09;;;;;;;10.88;10.30;;;1.50;99.90;;;;;;4159396;28;20041;-81
2022/04/04 02:02:12;;;;;;;11.90;11.30;;;1.60;99.90;;;;;;4177123;28;20041;-82
2022/04/04 02:04:14;;;;;;;12.23;11.32;;;1.60;99.90;;;;;;4176894;28;20071;-83
2022/04/04 02:06:18;;;;;;;10.73;10.23;;;1.60;99.90;;;;;;4162368;28;20120;-82
2022/04/04 02:08:21;;;;;;;8.82;8.38;;;1.60;99.90;;;;;;4160025;28;20041;-82
2022/04/04 02:10:23;;;;;;;9.82;9.38;;;1.50;99.90;;;;;;4178261;28;20037;-81
2022/04/04 02:12:25;;;;;;;9.40;9.10;;;1.70;99.90;;;;;;4178808;28;20049;-81
2022/04/04 02:14:27;;;;;;;10.98;10.40;;;1.70;99.90;;;;;;4178482;28;20067;-81
2022/04/04 02:16:29;;;;;;;9.52;9.18;;;1.70;99.90;;;;;;4179746;28;20071;-81
2022/04/04 02:18:33;;;;;;;8.98;8.23;;;1.60;99.90;;;;;;4150492;28;20041;-82
2022/04/04 02:20:37;;;;;;;9.45;9.15;;;1.60;99.90;;;;;;4165288;28;20067;-81
2022/04/04 02:22:39;;;;;;;9.77;9.38;;;1.70;99.90;;;;;;4172020;28;20029;-81
2022/04/04 02:24:41;;;;;;;8.75;8.45;;;1.60;99.90;;;;;;4162095;28;20053;-82
2022/04/04 02:26:44;;;;;;;9.18;8.88;;;1.60;99.90;;;;;;4179360;28;20743;-82
2022/04/04 02:28:46;;;;;;;8.38;8.07;;;1.50;99.90;;;;;;4178345;28;20033;-82
2022/04/04 02:30:49;;;;;;;9.02;8.65;;;1.50;99.90;;;;;;4161885;28;20049;-82
2022/04/04 02:32:52;;;;;;;9.52;9.07;;;1.60;99.90;;;;;;4178250;28;20043;-82
2022/04/04 02:34:54;;;;;;;10.30;10.00;;;1.40;99.90;;;;;;4178435;28;20065;-82
2022/04/04 02:36:56;;;;;;;10.07;9.68;;;1.40;99.90;;;;;;4166649;28;20408;-82
2022/04/04 02:38:59;;;;;;;9.48;9.20;;;1.40;99.90;;;;;;4188910;28;20565;-81
2022/04/04 02:41:01;;;;;;;10.52;9.93;;;1.40;99.90;;;;;;4179655;28;20104;-81
2022/04/04 02:43:04;;;;;;;10.73;9.98;;;1.40;99.90;;;;;;4168136;28;20053;-81
2022/04/04 02:45:06;;;;;;;10.18;9.55;;;1.40;99.90;;;;;;4165993;28;20049;-81
2022/04/04 02:47:09;;;;;;;;;;;1.40;99.90;;;;;;4164555;28;20041;-82
2022/04/04 02:49:11;;;;;;;9.18;8.63;;;1.60;99.90;;;;;;4170862;28;19920;-81
2022/04/04 02:51:13;;;;;;;8.90;8.68;;;1.50;99.90;;;;;;4194930;28;20720;-81
2022/04/04 02:53:16;;;;;;;9.98;9.25;;;1.40;99.90;;;;;;4177459;28;20504;-81
2022/04/04 02:57:39;;;;;;;9.88;9.23;;;1.50;99.90;;;;;;4179099;28;19921;-82
2022/04/04 02:59:42;;;;;;;10.68;9.88;;;1.50;99.90;;;;;;4173676;28;20068;-81
2022/04/04 03:01:50;;;;;;;10.85;10.48;;;1.50;99.90;;;;;;4171748;28;20045;-81
2022/04/04 03:03:54;;;;;;;10.57;10.27;;;1.50;99.90;;;;;;4170033;28;20099;-82
2022/04/04 03:05:57;;;;;;;8.70;8.30;;;1.60;99.90;;;;;;4174516;28;20073;-81
2022/04/04 03:08:00;;;;;;;9.38;8.95;;;1.70;99.90;;;;;;4168116;28;20052;-82
2022/04/04 03:10:03;;;;;;;9.50;9.13;;;1.70;99.90;;;;;;4177819;28;20044;-82
2022/04/04 03:12:07;;;;;;;8.25;7.90;;;1.70;99.90;;;;;;4175698;28;20230;-83
2022/04/04 03:14:10;;;;;;;8.60;8.10;;;1.70;99.90;;;;;;4158878;28;20041;-83
2022/04/04 03:16:14;;;;;;;8.23;7.82;;;1.70;99.90;;;;;;4177195;28;20037;-82
2022/04/04 03:18:16;;;;;;;9.18;8.82;;;1.70;99.90;;;;;;4177748;28;20474;-82
2022/04/04 03:20:25;;;;;;;9.38;8.90;;;1.70;99.90;;;;;;4178768;28;20072;-83
2022/04/04 03:22:27;;;;;;;9.18;8.98;;;1.70;99.90;;;;;;4177836;28;20134;-82
2022/04/04 03:24:30;;;;;;;8.80;8.32;;;1.70;99.90;;;;;;4177578;28;20057;-82
2022/04/04 03:26:33;;;;;;;10.32;9.88;;;1.80;99.90;;;;;;4177181;28;20045;-82
2022/04/04 03:28:36;;;;;;;10.30;9.93;;;1.80;99.90;;;;;;4193541;28;20099;-82
2022/04/04 03:30:38;;;;;;;8.88;8.48;;;1.80;99.90;;;;;;4160891;28;20064;-82
2022/04/04 03:32:41;;;;;;;8.95;8.85;;;1.80;99.90;;;;;;4194512;28;20062;-82
2022/04/04 03:34:44;;;;;;;8.85;8.60;;;1.70;99.90;;;;;;4178660;28;20083;-82
2022/04/04 03:36:47;;;;;;;8.10;7.80;;;1.70;99.90;;;;;;4178617;28;20040;-82
2022/04/04 03:38:54;;;;;;;7.80;7.45;;;1.70;99.90;;;;;;4194851;28;20044;-81
2022/04/04 03:40:57;;;;;;;10.73;6.68;;;1.60;99.90;;;;;;4161911;28;20050;-82
2022/04/04 03:43:00;;;;;;;7.32;7.22;;;1.60;99.90;;;;;;4161985;28;20049;-82
2022/04/04 03:45:04;;;;;;;7.97;7.75;;;1.50;99.90;;;;;;4194662;28;20680;-82
2022/04/04 03:47:07;;;;;;;8.00;7.43;;;1.50;99.90;;;;;;4194972;28;20049;-82
2022/04/04 03:49:09;;;;;;;7.70;7.45;;;1.40;99.90;;;;;;4178494;28;20444;-82
2022/04/04 03:51:12;;;;;;;8.25;8.05;;;1.50;99.90;;;;;;4177284;28;20040;-82
2022/04/04 03:53:14;;;;;;;8.50;8.20;;;1.50;99.90;;;;;;4173724;28;20083;-83
2022/04/04 03:55:17;;;;;;;;;;;1.50;99.90;;;;;;4162220;28;20057;-82
2022/04/04 03:57:19;;;;;;;6.30;6.20;;;1.50;99.90;;;;;;4195002;28;19944;-82
2022/04/04 03:59:22;;;;;;;9.30;9.05;;;1.50;99.90;;;;;;4186317;28;20037;-82
2022/04/04 04:01:27;;;;;;;7.88;7.57;;;1.40;99.90;;;;;;4163485;28;20586;-82
2022/04/04 04:03:29;;;;;;;8.27;8.18;;;1.40;99.90;;;;;;4151273;28;20698;-81
2022/04/04 04:05:32;;;;;;;6.70;6.60;;;1.40;99.90;;;;;;4167751;28;20071;-81
2022/04/04 04:07:34;;;;;;;8.95;8.65;;;1.40;99.90;;;;;;4178513;28;20044;-82
2022/04/04 04:09:37;;;;;;;10.02;9.73;;;1.40;99.90;;;;;;4160188;28;20060;-82
2022/04/04 04:11:39;;;;;;;8.57;8.27;;;1.40;99.90;;;;;;4185247;28;20048;-81
2022/04/04 04:13:44;;;;;;;8.40;8.20;;;1.40;99.90;;;;;;4178113;28;20044;-81
2022/04/04 04:15:46;;;;;;;9.13;8.93;;;1.30;99.90;;;;;;4194449;28;20090;-84
2022/04/04 04:17:52;;;;;;;9.23;9.02;;;1.30;99.90;;;;;;4176331;28;20037;-82
2022/04/04 04:22:15;;;;;;;10.18;9.88;;;1.30;99.90;;;;;;4175315;28;20417;-82
2022/04/04 04:24:18;;;;;;;9.70;9.43;;;1.20;99.90;;;;;;4172683;28;20116;-81
2022/04/04 04:26:21;;;;;;;9.25;8.85;;;1.20;99.90;;;;;;4188014;28;20045;-81
2022/04/04 04:28:23;;;;;;;10.05;9.63;;;1.20;99.90;;;;;;4162054;28;20056;-82
2022/04/04 04:30:28;;;;;;;10.82;10.20;;;1.10;99.90;;;;;;4176186;28;20093;-82
2022/04/04 04:32:30;;;;;;;7.82;7.72;;;1.20;99.90;;;;;;4160082;28;20044;-81
2022/04/04 04:34:34;;;;;;;8.80;8.30;;;1.20;99.90;;;;;;4177565;28;20033;-82
2022/04/04 04:36:39;;;;;;;9.32;8.93;;;1.20;99.90;;;;;;4164523;28;20042;-81
2022/04/04 04:38:42;;;;;;;9.25;8.95;;;1.20;99.90;;;;;;4187866;28;20033;-81
2022/04/04 04:40:44;;;;;;;8.80;8.35;;;1.20;99.90;;;;;;4170661;28;20076;-82
2022/04/04 04:42:50;;;;;;;9.90;9.32;;;1.20;99.90;;;;;;4171544;28;20045;-81
2022/04/04 04:44:52;;;;;;;8.13;7.97;;;1.20;99.90;;;;;;4170457;28;20045;-81
2022/04/04 04:46:54;;;;;;;9.50;9.15;;;1.10;99.90;;;;;;4163248;28;20643;-83
2022/04/04 04:48:57;;;;;;;9.30;9.10;;;1.20;99.90;;;;;;4177743;28;20079;-81
2022/04/04 04:51:00;;;;;;;9.75;9.27;;;1.20;99.90;;;;;;4177209;28;20045;-81
2022/04/04 04:53:02;;;;;;;10.77;10.18;;;1.20;99.90;;;;;;4162961;28;20037;-82
2022/04/04 04:55:05;;;;;;;10.20;9.80;;;1.20;99.90;;;;;;4186104;28;20044;-82
2022/04/04 04:57:07;;;;;;;8.27;7.97;;;1.20;99.90;;;;;;4180999;28;20029;-81
2022/04/04 04:59:10;;;;;;;8.63;8.52;;;1.10;99.90;;;;;;4176265;28;20037;-81
2022/04/04 05:01:12;;;;;;;8.38;8.27;;;1.20;99.90;;;;;;4170993;28;20053;-82
2022/04/04 05:03:26;;;;;;;9.32;9.02;;;1.20;99.90;;;;;;4177571;28;20044;-81
2022/04/04 05:05:28;;;;;;;10.23;9.93;;;1.00;99.90;;;;;;4172735;28;20591;-81
2022/04/04 05:07:30;;;;;;;11.20;10.90;;;0.90;99.90;;;;;;4164499;28;20033;-81
2022/04/04 05:09:34;;;;;;;11.65;11.18;;;0.90;99.90;;;;;;4177339;28;20045;-81
2022/04/04 05:11:36;;;;;;;13.35;12.65;;;0.90;99.90;;;;;;4177132;28;20110;-81
2022/04/04 05:13:39;;;;;;;33.88;22.38;;;0.90;99.90;;;;;;4162146;28;20037;-81
2022/04/04 05:15:42;;;;;;;20.95;18.83;;;0.80;99.90;;;;;;4161029;28;20101;-81
2022/04/04 05:17:44;;;;;;;13.38;12.45;;;0.80;99.90;;;;;;4170287;28;20041;-82
2022/04/04 05:19:46;;;;;;;11.95;11.18;;;0.90;99.90;;;;;;4176010;28;20501;-81
2022/04/04 05:21:49;;;;;;;;;;;0.90;99.90;;;;;;4170954;28;20042;-81
2022/04/04 05:23:51;;;;;;;9.45;9.15;;;0.80;99.90;;;;;;4171108;28;20392;-81
2022/04/04 05:25:53;;;;;;;7.38;7.28;;;0.90;99.90;;;;;;4177618;28;20128;-83
2022/04/04 05:27:57;;;;;;;8.18;7.97;;;0.90;99.90;;;;;;4158834;28;20406;-83
2022/04/04 05:29:59;;;;;;;10.90;10.25;;;0.90;99.90;;;;;;4177544;28;20382;-82
2022/04/04 05:32:01;;;;;;;9.05;8.60;;;1.00;99.90;;;;;;4176507;28;20661;-84
2022/04/04 05:34:07;;;;;;;9.13;8.40;;;1.00;99.90;;;;;;4157093;28;20046;-83
2022/04/04 05:36:09;;;;;;;9.18;8.63;;;1.00;99.90;;;;;;4158582;28;20045;-83
2022/04/04 05:38:14;;;;;;;10.18;9.88;;;1.00;99.90;;;;;;4168552;28;20038;-83
2022/04/04 05:40:17;;;;;;;9.55;8.85;;;1.10;99.90;;;;;;4159511;28;20049;-83
2022/04/04 05:42:20;;;;;;;8.32;7.97;;;1.20;99.90;;;;;;4180724;28;20110;-84
2022/04/04 05:44:22;;;;;;;31.48;25.67;;;1.30;99.90;;;;;;4179554;28;20126;-83
2022/04/04 05:46:25;;;;;;;28.23;25.27;;;1.30;99.90;;;;;;4173272;28;20077;-82
2022/04/04 05:48:30;;;;;;;14.00;13.02;;;1.20;99.90;;;;;;4163038;28;20052;-82
2022/04/04 05:50:34;;;;;;;13.40;12.48;;;1.10;99.90;;;;;;4180249;28;20067;-83
2022/04/04 05:52:37;;;;;;;12.93;12.18;;;1.10;99.90;;;;;;4179512;28;20120;-83
2022/04/04 05:54:53;;;;;;;15.20;14.40;;;1.00;99.90;;;;;;4179411;28;20489;-83
2022/04/04 05:56:57;;;;;;;14.48;13.38;;;1.00;99.90;;;;;;4162885;28;20041;-82
2022/04/04 05:59:00;;;;;;;16.05;14.85;;;1.00;99.90;;;;;;4161293;28;20046;-84
2022/04/04 06:01:03;;;;;;;14.95;14.07;;;1.10;99.90;;;;;;4177681;28;20088;-83
2022/04/04 06:03:06;;;;;;;11.27;10.65;;;1.00;99.90;;;;;;4176275;28;20041;-84
2022/04/04 06:05:08;;;;;;;;;;;1.20;99.90;;;;;;4162535;28;20559;-83
2022/04/04 06:07:10;;;;;;;15.93;14.90;;;1.20;99.90;;;;;;4179282;28;20408;-85
2022/04/04 06:09:13;;;;;;;15.23;14.30;;;1.30;99.90;;;;;;4162555;28;20053;-83
2022/04/04 06:11:16;;;;;;;17.15;16.05;;;1.40;99.90;;;;;;4162137;28;20045;-84
2022/04/04 06:13:19;;;;;;;14.60;13.70;;;1.50;99.90;;;;;;4179168;28;20037;-84
2022/04/04 06:15:24;;;;;;;19.88;17.92;;;1.50;99.90;;;;;;4178472;28;20112;-83
2022/04/04 06:17:28;;;;;;;31.30;24.58;;;1.50;99.90;;;;;;4178685;28;20037;-83
2022/04/04 06:19:30;;;;;;;16.23;15.30;;;1.60;99.90;;;;;;4162340;28;20041;-85
2022/04/04 06:21:32;;;;;;;16.35;14.80;;;1.70;99.90;;;;;;4175907;28;20511;-83
2022/04/04 06:23:36;;;;;;;18.05;16.40;;;1.70;99.90;;;;;;4178008;28;20051;-85
2022/04/04 06:25:39;;;;;;;13.07;11.70;;;1.80;99.90;;;;;;4172346;28;20053;-83
2022/04/04 06:27:42;;;;;;;11.55;10.82;;;1.90;99.90;;;;;;4175740;28;20041;-84
2022/04/04 06:29:46;;;;;;;12.07;11.25;;;2.00;99.90;;;;;;4156574;28;20042;-83
2022/04/04 06:31:48;;;;;;;11.00;10.10;;;2.10;99.90;;;;;;4174050;28;20040;-84
2022/04/04 06:33:52;;;;;;;13.35;12.68;;;2.20;99.90;;;;;;4177299;28;20033;-85
2022/04/04 06:35:57;;;;;;;12.23;11.27;;;2.30;99.90;;;;;;4169223;28;20029;-86
2022/04/04 06:38:01;;;;;;;13.77;12.90;;;2.40;99.90;;;;;;4177257;28;20033;-83
2022/04/04 06:40:05;;;;;;;17.45;15.82;;;2.50;99.90;;;;;;4161426;28;20049;-82
2022/04/04 06:42:09;;;;;;;14.10;12.88;;;2.60;99.90;;;;;;4171354;28;20758;-83
2022/04/04 06:44:11;;;;;;;10.43;10.02;;;2.60;99.90;;;;;;4161158;28;20038;-83
2022/04/04 06:46:16;;;;;;;8.57;8.38;;;2.60;99.90;;;;;;4178551;28;20708;-83
2022/04/04 06:48:21;;;;;;;8.38;8.18;;;2.80;99.90;;;;;;4174669;28;20064;-83
2022/04/04 06:50:23;;;;;;;10.68;10.15;;;2.90;99.90;;;;;;4177205;28;20041;-83
2022/04/04 06:52:27;;;;;;;15.38;14.10;;;3.00;99.90;;;;;;4177743;28;20041;-83
2022/04/04 06:54:29;;;;;;;19.80;17.65;;;3.00;99.90;;;;;;4159798;28;20068;-83
2022/04/04 06:56:32;;;;;;;9.38;8.98;;;3.20;99.90;;;;;;4161096;28;20511;-85
2022/04/04 06:58:35;;;;;;;8.23;7.95;;;3.30;99.90;;;;;;4179075;28;20099;-83
2022/04/04 07:00:38;;;;;;;8.00;7.80;;;3.40;99.90;;;;;;4177559;28;20103;-83
2022/04/04 07:02:41;;;;;;;6.57;6.38;;;3.60;99.90;;;;;;4176258;28;20476;-83
2022/04/04 07:04:44;;;;;;;;;;;3.70;99.90;;;;;;4161364;28;20511;-83
2022/04/04 07:06:47;;;;;;;8.75;8.45;;;3.80;99.90;;;;;;4178042;28;19927;-83
2022/04/04 07:08:51;;;;;;;12.70;11.60;;;3.80;99.90;;;;;;4172597;28;20037;-83
2022/04/04 07:10:56;;;;;;;10.23;9.57;;;4.00;99.90;;;;;;4159143;28;20729;-83
2022/04/04 07:13:00;;;;;;;9.25;8.85;;;4.10;99.90;;;;;;4172228;28;20037;-83
2022/04/04 07:15:05;;;;;;;7.32;7.03;;;4.20;99.90;;;;;;4148016;28;20125;-83
2022/04/04 07:17:09;;;;;;;11.02;10.25;;;4.20;99.90;;;;;;4163580;28;20037;-84
2022/04/04 07:19:15;;;;;;;8.45;8.00;;;4.30;99.90;;;;;;4161674;28;20072;-83
2022/04/04 07:21:18;;;;;;;8.77;8.38;;;4.30;99.90;;;;;;4177741;28;20079;-84
2022/04/04 07:23:22;;;;;;;6.55;6.32;;;4.40;99.90;;;;;;4174377;28;20588;-83
2022/04/04 07:25:27;;;;;;;7.65;7.35;;;4.50;99.90;;;;;;4173976;28;20907;-83
2022/04/04 07:27:31;;;;;;;5.43;5.32;;;4.50;99.90;;;;;;4186703;28;20144;-83
2022/04/04 07:29:34;;;;;;;6.72;6.53;;;4.60;99.90;;;;;;4173966;28;20041;-83
2022/04/04 07:31:40;;;;;;;7.50;7.00;;;4.70;99.90;;;;;;4176067;28;20049;-83
2022/04/04 07:33:43;;;;;;;5.05;4.95;;;4.80;99.90;;;;;;4194263;28;20135;-83
2022/04/04 07:35:47;;;;;;;6.13;5.75;;;5.00;99.90;;;;;;4160870;28;20045;-83
2022/04/04 07:37:50;;;;;;;5.80;5.50;;;5.10;99.90;;;;;;4195180;28;20073;-83
2022/04/04 07:39:54;;;;;;;4.07;3.95;;;5.20;99.90;;;;;;4178950;28;20037;-83
2022/04/04 07:41:56;;;;;;;8.52;4.60;;;5.20;99.90;;;;;;4183165;28;20041;-83
2022/04/04 07:43:58;;;;;;;5.10;4.25;;;5.30;99.90;;;;;;4172356;28;20055;-83
2022/04/04 07:46:02;;;;;;;4.78;4.68;;;5.50;99.90;;;;;;4162106;28;20038;-83
2022/04/04 07:48:05;;;;;;;4.47;4.32;;;5.80;99.90;;;;;;4178939;28;20040;-83
2022/04/04 07:50:08;;;;;;;;;;;5.80;99.90;;;;;;4185002;28;20040;-82
2022/04/04 07:52:10;;;;;;;8.57;7.88;;;6.00;99.90;;;;;;4181532;28;19947;-83
2022/04/04 07:54:13;;;;;;;5.47;5.22;;;6.00;99.90;;;;;;4161824;28;20522;-84
2022/04/04 07:56:15;;;;;;;3.80;3.70;;;6.20;99.90;;;;;;4177725;28;20520;-83
2022/04/04 07:58:20;;;;;;;4.00;3.90;;;6.40;99.90;;;;;;4177682;28;20060;-83
2022/04/04 08:00:24;;;;;;;5.05;4.95;;;6.60;99.90;;;;;;4170810;28;20077;-83
2022/04/04 08:02:29;;;;;;;4.75;4.55;;;6.90;99.90;;;;;;4173196;28;20137;-84
2022/04/04 08:04:32;;;;;;;3.60;3.20;;;7.00;99.90;;;;;;4152466;28;20069;-83
2022/04/04 08:06:35;;;;;;;3.92;3.85;;;7.10;99.90;;;;;;4169612;28;20052;-84
2022/04/04 08:08:37;;;;;;;4.82;3.92;;;7.20;99.90;;;;;;4190869;28;20158;-83
2022/04/04 08:10:39;;;;;;;5.60;5.40;;;7.50;99.90;;;;;;4178330;28;20028;-84
2022/04/04 08:12:42;;;;;;;4.50;4.30;;;7.40;99.90;;;;;;4178570;28;20045;-83
2022/04/04 08:14:47;;;;;;;5.47;5.28;;;7.50;99.90;;;;;;4177457;28;20068;-85
2022/04/04 08:16:50;;;;;;;3.70;3.60;;;7.80;99.90;;;;;;4175445;28;20044;-83
2022/04/04 08:18:54;;;;;;;4.97;4.68;;;7.90;99.90;;;;;;4194736;28;20032;-84
2022/04/04 08:20:57;;;;;;;4.70;4.45;;;7.90;99.90;;;;;;4194465;28;20097;-85
2022/04/04 08:23:05;;;;;;;4.65;4.55;;;8.00;99.90;;;;;;4161698;28;20041;-84
2022/04/04 08:25:08;;;;;;;3.92;3.78;;;8.10;99.90;;;;;;4178352;28;20037;-84
2022/04/04 08:27:10;;;;;;;4.38;4.28;;;8.50;99.90;;;;;;4177803;28;20057;-83
2022/04/04 08:29:13;;;;;;;;;;;8.50;99.90;;;;;;4178473;28;20052;-84
2022/04/04 08:31:17;;;;;;;3.85;2.70;;;8.60;99.90;;;;;;4178123;28;20007;-84
2022/04/04 08:33:20;;;;;;;2.47;2.38;;;8.60;99.90;;;;;;4194171;28;20115;-84
2022/04/04 08:35:23;;;;;;;2.33;2.22;;;8.80;99.90;;;;;;4176941;28;20042;-84
2022/04/04 08:37:25;;;;;;;3.42;2.70;;;8.80;99.90;;;;;;4194495;28;20037;-83
2022/04/04 08:39:28;;;;;;;4.72;3.10;;;8.70;99.90;;;;;;4161538;28;20049;-84
2022/04/04 08:41:32;;;;;;;3.00;2.90;;;9.00;99.90;;;;;;4173063;28;20508;-84
2022/04/04 08:43:37;;;;;;;3.90;3.70;;;9.00;99.90;;;;;;4194633;28;20036;-84
2022/04/04 08:45:42;;;;;;;3.00;2.90;;;8.70;99.90;;;;;;4194446;28;20063;-83
2022/04/04 08:47:46;;;;;;;2.75;2.53;;;8.90;99.90;;;;;;4161376;28;20525;-84
2022/04/04 08:49:54;;;;;;;6.53;2.60;;;9.40;99.90;;;;;;4194465;28;20047;-84
2022/04/04 08:51:58;;;;;;;2.70;2.65;;;9.80;99.90;;;;;;4193978;28;20075;-84
2022/04/04 08:54:00;;;;;;;2.05;1.95;;;10.20;99.90;;;;;;4159867;28;20152;-84
2022/04/04 08:56:04;;;;;;;3.10;2.85;;;10.00;99.90;;;;;;4176531;28;20166;-83
2022/04/04 08:58:06;;;;;;;2.00;2.00;;;10.10;99.90;;;;;;4194089;28;20488;-84
2022/04/04 09:00:10;;;;;;;1.63;1.60;;;9.90;99.90;;;;;;4176602;28;20102;-84
2022/04/04 09:02:18;;;;;;;1.98;1.88;;;9.70;99.90;;;;;;4177799;28;20060;-84
2022/04/04 09:04:22;;;;;;;1.77;1.67;;;10.00;99.90;;;;;;4159193;28;20120;-85
2022/04/04 09:06:28;;;;;;;1.70;1.60;;;10.40;99.90;;;;;;4177302;28;20119;-85
2022/04/04 09:08:52;;;;;;;2.22;2.13;;;10.00;99.90;;;;;;4184275;28;20068;-85
2022/04/04 09:10:56;;;;;;;2.45;1.98;;;10.00;99.90;;;;;;4174826;28;20045;-84
2022/04/04 09:13:13;;;;;;;2.65;2.65;;;10.30;99.90;;;;;;4150622;28;20072;-84
2022/04/04 09:15:15;;;;;;;1.40;1.40;;;10.00;99.90;;;;;;4180328;28;20486;-84
2022/04/04 09:17:24;;;;;;;1.75;1.70;;;9.90;99.90;;;;;;4193445;28;20082;-85
2022/04/04 09:19:29;;;;;;;1.30;1.30;;;10.10;99.90;;;;;;4156766;28;20152;-84
2022/04/04 09:21:33;;;;;;;1.90;1.75;;;10.00;99.90;;;;;;4180315;28;20056;-84
2022/04/04 09:23:56;;;;;;;2.40;2.30;;;10.20;99.90;;;;;;4179478;28;20412;-85
2022/04/04 09:26:00;;;;;;;2.42;2.33;;;10.70;99.90;;;;;;4197522;28;20051;-85
2022/04/04 09:28:17;;;;;;;3.20;2.35;;;10.90;99.90;;;;;;4179766;28;20049;-85
2022/04/04 09:30:22;;;;;;;2.10;1.90;;;10.90;99.90;;;;;;4176089;28;20037;-85
2022/04/04 09:32:46;;;;;;;2.13;1.90;;;10.80;99.90;;;;;;4194076;28;20125;-86
2022/04/04 09:35:08;;;;;;;1.40;1.40;;;11.00;99.90;;;;;;4176676;28;20037;-84
2022/04/04 09:37:19;;;;;;;1.70;1.60;;;10.70;99.90;;;;;;4191302;28;20517;-84
2022/04/04 09:39:49;;;;;;;1.77;1.52;;;11.20;99.90;;;;;;4170891;28;20033;-84
2022/04/04 09:42:15;;;;;;;3.88;2.08;;;11.60;99.90;;;;;;4114425;28;20054;-85
2022/04/04 09:44:25;;;;;;;1.40;1.40;;;11.60;99.90;;;;;;4096366;28;20151;-84
2022/04/04 09:46:36;;;;;;;1.83;1.40;;;11.60;99.90;;;;;;4100204;28;20103;-84
2022/04/04 09:48:58;;;;;;;3.75;1.85;;;11.80;99.90;;;;;;4082674;29;20563;-85
2022/04/04 09:51:01;;;;;;;2.00;1.70;;;12.00;99.90;;;;;;4107892;28;20530;-85
2022/04/04 09:53:06;;;;;;;2.55;2.40;;;12.20;99.90;;;;;;4100343;28;20159;-84
2022/04/04 09:55:26;;;;;;;1.85;1.83;;;12.20;99.90;;;;;;4081901;29;20047;-85
2022/04/04 09:57:30;;;;;;;1.70;1.60;;;11.80;99.90;;;;;;4092297;28;20082;-85
2022/04/04 09:59:36;;;;;;;1.70;1.60;;;11.80;99.90;;;;;;4101587;28;20055;-85
2022/04/04 10:01:42;;;;;;;2.17;2.08;;;12.00;99.90;;;;;;4102492;28;20051;-85
2022/04/04 10:04:14;;;;;;;2.40;2.20;;;11.80;99.90;;;;;;4096785;29;20110;-85
2022/04/04 10:06:18;;;;;;;1.80;1.70;;;12.00;99.90;;;;;;4093836;29;20059;-85
2022/04/04 10:08:25;;;;;;;1.42;1.42;;;12.70;99.90;;;;;;4095502;29;20079;-85
2022/04/04 10:10:30;;;;;;;1.90;1.80;;;13.10;99.90;;;;;;4088948;28;20050;-85
2022/04/04 10:12:35;;;;;;;2.00;1.90;;;13.00;99.90;;;;;;4094874;29;20059;-85
2022/04/04 10:14:38;;;;;;;2.25;2.05;;;13.10;99.90;;;;;;4110945;28;20541;-85
2022/04/04 10:16:43;;;;;;;1.80;1.80;;;12.70;99.90;;;;;;4095445;29;20044;-85
2022/04/04 10:18:46;;;;;;;2.20;2.08;;;12.10;99.10;;;;;;4114111;28;20045;-85
2022/04/04 10:20:53;;;;;;;3.17;2.45;;;12.00;99.40;;;;;;4137767;28;20061;-85
2022/04/04 10:22:57;;;;;;;2.17;2.10;;;11.60;99.90;;;;;;4177690;28;20067;-85
2022/04/04 10:25:02;;;;;;;2.13;2.03;;;11.50;98.40;;;;;;4155629;28;20092;-85
2022/04/04 10:27:08;;;;;;;1.90;1.80;;;12.10;99.90;;;;;;4151847;28;20554;-85
2022/04/04 10:29:14;;;;;;;3.17;2.40;;;12.40;99.60;;;;;;4153325;28;20103;-86
2022/04/04 10:31:19;;;;;;;2.17;2.10;;;12.60;99.30;;;;;;4177701;28;20163;-85
2022/04/04 10:33:25;;;;;;;1.95;1.88;;;12.90;99.30;;;;;;4149690;28;20160;-84
2022/04/04 10:35:30;;;;;;;1.88;1.88;;;12.40;98.40;;;;;;4145783;28;20042;-85
2022/04/04 10:37:42;;;;;;;2.58;1.80;;;12.40;98.90;;;;;;4139540;28;20050;-85
2022/04/04 10:39:48;;;;;;;3.15;2.13;;;12.40;99.00;;;;;;4172161;28;20065;-85
2022/04/04 10:41:51;;;;;;;1.95;1.85;;;13.20;99.90;;;;;;4170263;28;20037;-85
2022/04/04 10:43:55;;;;;;;2.05;2.00;;;13.70;98.00;;;;;;4171494;28;20440;-85
2022/04/04 10:46:00;;;;;;;1.98;1.88;;;14.10;97.70;;;;;;4161379;28;20504;-86
2022/04/04 10:48:07;;;;;;;2.55;2.45;;;14.20;96.00;;;;;;4179857;28;20117;-85
2022/04/04 10:50:24;;;;;;;1.80;1.70;;;13.90;96.70;;;;;;4193715;28;20128;-85
2022/04/04 10:52:40;;;;;;;1.92;1.83;;;13.20;94.00;;;;;;4177157;28;20858;-85
2022/04/04 10:54:44;;;;;;;2.38;1.85;;;13.10;95.30;;;;;;4186392;28;20036;-85
2022/04/04 10:56:50;;;;;;;1.80;1.80;;;12.40;93.60;;;;;;4153655;28;20452;-85
2022/04/04 10:59:19;;;;;;;2.33;2.15;;;12.20;94.70;;;;;;4171528;28;20092;-85